Decoded Metar for EGJJ (JERSEY in ENGLAND) (IATA:JER) | Meteo·Mobile Aviation Weather
aviador You're here:

EGJJ Decoded Metar

JERSEY in ENGLAND
Report Time2019-07-16 12:20:00
UTC Time2019-07-16 12:37:27
Flight Rules vfr VFR
Wind340° at 06 kt
W.Decomp.*RWY 27: 2.0 kt HW 5.7 kt RCW
Visibility9999 m
Phenomena:N/A
Clouds:Few 022 Hf
Expected CloudBase > 2,800 ft AGL from Temp-Dew spread
CeilingNone
Temp21°C (ISA +7)
Dew Point14°C (64% RH)
AAT20.1°C
QNH1019 hPa
Density Alt1,053 ft
Elevation276 ft
Report Wrong Elevation
Raw Report
METAR EGJJ 161220Z 34006KT 300V050 9999 FEW022 21/14 Q1019=

Extra information for EGJJ:More info

Metar Taf Metar & Taf Last 4 Metars F.Rules Stats Wind Profile Meteogram Temp Stats Airport Information Weather charts Add Link Nearby VenuesMetar ALERT Operation Metar Decoded Social comments